This is the latest recevied weather packets stored in our database for station/object SQ8AQX-13. If no packets are shown the sender has not sent any weather packets the latest 10 day(s).
| Time | Temp. | Humidity | Pressure | Rain* | Wind** | Luminosity | Snow |
|---|---|---|---|---|---|---|---|
| 1777614773 | 7.78° C | 51% | 1029.6 hPa | - | - | - | - |
| 1777614173 | 7.22° C | 54% | 1029.6 hPa | - | - | - | - |
| 1777612372 | 6.67° C | 57% | 1029.5 hPa | - | - | - | - |
| 1777611772 | 6.67° C | 56% | 1029.6 hPa | - | - | - | - |
| 1777611172 | 6.67° C | 56% | 1029.6 hPa | - | - | - | - |
| 1777608772 | 6.11° C | 57% | 1029.3 hPa | - | - | - | - |
| 1777608172 | 6.11° C | 56% | 1029.2 hPa | - | - | - | - |
| 1777607572 | 5.56° C | 57% | 1029.4 hPa | - | - | - | - |
| 1777604571 | 6.11° C | 56% | 1029.7 hPa | - | - | - | - |
| 1777603971 | 6.11° C | 54% | 1029.7 hPa | - | - | - | - |
| 1777603371 | 6.11° C | 54% | 1029.6 hPa | - | - | - | - |
| 1777601570 | 5.56° C | 56% | 1029.4 hPa | - | - | - | - |
| 1777586568 | 7.78° C | 41% | 1029.7 hPa | - | - | - | - |
| 1777585968 | 8.33° C | 43% | 1029.6 hPa | - | - | - | - |
| 1777573966 | 11.11° C | 29% | 1029.4 hPa | - | - | - | - |
| 1777568565 | 12.78° C | 21% | 1028.9 hPa | - | - | - | - |
| 1777567965 | 13.33° C | 20% | 1028.8 hPa | - | - | - | - |
| 1777565565 | 17.22° C | 19% | 1028.6 hPa | - | - | - | - |
| 1777563764 | 18.33° C | 19% | 1028.6 hPa | - | - | - | - |
| 1777563164 | 17.78° C | 21% | 1028.6 hPa | - | - | - | - |
| 1777549962 | 12.78° C | 32% | 1030.9 hPa | - | - | - | - |
| 1777544561 | 11.11° C | 36% | 1031.9 hPa | - | - | - | - |
| 1777541561 | 9.44° C | 39% | 1032.3 hPa | - | - | - | - |
| 1777540961 | 10° C | 38% | 1032.3 hPa | - | - | - | - |
| 1777535560 | 7.78° C | 43% | 1033.1 hPa | - | - | - | - |
* Rain since midnight (hover to see other rain measurements)
** Current wind speed in m/s (hover to see current wind gust speed)